sensor_id;sensor_type;location;lat;lon;timestamp;pressure;altitude;pressure_sealevel;temperature;humidity
62103;BME280;48077;48.104;11.702;2023-04-19T00:01:36;95913.56;;;6.59;100.00
62103;BME280;48077;48.104;11.702;2023-04-19T00:07:40;95905.38;;;6.54;100.00
62103;BME280;48077;48.104;11.702;2023-04-19T00:10:04;95905.38;;;6.54;100.00
62103;BME280;48077;48.104;11.702;2023-04-19T00:12:27;95899.25;;;6.46;100.00
62103;BME280;48077;48.104;11.702;2023-04-19T00:14:51;95905.59;;;6.52;100.00
62103;BME280;48077;48.104;11.702;2023-04-19T00:17:14;95865.31;;;6.28;100.00
62103;BME280;48077;48.104;11.702;2023-04-19T00:19:37;95897.84;;;6.57;100.00
62103;BME280;48077;48.104;11.702;2023-04-19T00:22:01;95894.75;;;6.47;100.00
62103;BME280;48077;48.104;11.702;2023-04-19T00:24:24;95898.03;;;6.49;100.00
62103;BME280;48077;48.104;11.702;2023-04-19T00:26:48;95903.13;;;6.51;100.00
62103;BME280;48077;48.104;11.702;2023-04-19T00:29:11;95897.66;;;6.52;100.00
62103;BME280;48077;48.104;11.702;2023-04-19T00:31:34;95879.22;;;6.37;100.00
62103;BME280;48077;48.104;11.702;2023-04-19T00:33:58;95888.63;;;6.40;100.00
62103;BME280;48077;48.104;11.702;2023-04-19T00:36:21;95896.00;;;6.51;100.00
62103;BME280;48077;48.104;11.702;2023-04-19T00:38:45;95879.25;;;6.44;100.00
62103;BME280;48077;48.104;11.702;2023-04-19T00:41:08;95879.25;;;6.44;100.00
62103;BME280;48077;48.104;11.702;2023-04-19T00:43:32;95871.06;;;6.39;100.00
62103;BME280;48077;48.104;11.702;2023-04-19T00:45:55;95869.44;;;6.38;100.00
62103;BME280;48077;48.104;11.702;2023-04-19T00:48:18;95885.03;;;6.54;100.00
62103;BME280;48077;48.104;11.702;2023-04-19T00:50:45;95878.66;;;6.48;100.00
62103;BME280;48077;48.104;11.702;2023-04-19T00:53:09;95868.84;;;6.36;100.00
62103;BME280;48077;48.104;11.702;2023-04-19T00:55:32;95874.34;;;6.41;100.00
62103;BME280;48077;48.104;11.702;2023-04-19T00:57:56;95877.63;;;6.43;100.00
62103;BME280;48077;48.104;11.702;2023-04-19T01:00:19;95866.19;;;6.36;100.00
62103;BME280;48077;48.104;11.702;2023-04-19T01:02:43;95856.41;;;6.36;100.00
62103;BME280;48077;48.104;11.702;2023-04-19T01:05:06;95875.16;;;6.41;100.00
62103;BME280;48077;48.104;11.702;2023-04-19T01:07:32;95871.88;;;6.39;100.00
62103;BME280;48077;48.104;11.702;2023-04-19T01:09:56;95878.84;;;6.40;100.00
62103;BME280;48077;48.104;11.702;2023-04-19T01:12:22;95870.25;;;6.38;100.00
62103;BME280;48077;48.104;11.702;2023-04-19T01:14:45;95848.59;;;6.21;100.00
62103;BME280;48077;48.104;11.702;2023-04-19T01:17:09;95867.81;;;6.37;100.00
62103;BME280;48077;48.104;11.702;2023-04-19T01:19:33;95865.56;;;6.34;100.00
62103;BME280;48077;48.104;11.702;2023-04-19T01:21:57;95846.75;;;6.22;100.00
62103;BME280;48077;48.104;11.702;2023-04-19T01:24:20;95846.16;;;6.33;100.00
62103;BME280;48077;48.104;11.702;2023-04-19T01:26:43;95855.19;;;6.39;100.00
62103;BME280;48077;48.104;11.702;2023-04-19T01:29:07;95843.97;;;6.37;100.00
62103;BME280;48077;48.104;11.702;2023-04-19T01:31:30;95852.31;;;6.34;100.00
62103;BME280;48077;48.104;11.702;2023-04-19T01:33:54;95839.25;;;6.32;100.00
62103;BME280;48077;48.104;11.702;2023-04-19T01:36:17;95851.09;;;6.36;100.00
62103;BME280;48077;48.104;11.702;2023-04-19T01:38:40;95848.00;;;6.33;100.00
62103;BME280;48077;48.104;11.702;2023-04-19T01:41:04;95811.06;;;6.11;100.00
62103;BME280;48077;48.104;11.702;2023-04-19T01:43:27;95842.69;;;6.26;100.00
62103;BME280;48077;48.104;11.702;2023-04-19T01:45:51;95833.91;;;6.19;100.00
62103;BME280;48077;48.104;11.702;2023-04-19T01:48:14;95822.25;;;6.13;100.00
62103;BME280;48077;48.104;11.702;2023-04-19T01:50:38;95812.88;;;6.11;100.00
62103;BME280;48077;48.104;11.702;2023-04-19T01:53:01;95830.44;;;6.25;100.00
62103;BME280;48077;48.104;11.702;2023-04-19T01:55:24;95846.97;;;6.27;100.00
62103;BME280;48077;48.104;11.702;2023-04-19T01:57:48;95823.69;;;6.16;100.00
62103;BME280;48077;48.104;11.702;2023-04-19T02:00:12;95830.84;;;6.22;100.00
62103;BME280;48077;48.104;11.702;2023-04-19T02:02:36;95839.41;;;6.24;100.00
62103;BME280;48077;48.104;11.702;2023-04-19T02:05:00;95820.22;;;6.15;100.00
62103;BME280;48077;48.104;11.702;2023-04-19T02:07:23;95822.28;;;6.20;100.00
62103;BME280;48077;48.104;11.702;2023-04-19T02:09:47;95831.03;;;6.20;100.00
62103;BME280;48077;48.104;11.702;2023-04-19T02:12:12;95814.66;;;6.03;100.00
62103;BME280;48077;48.104;11.702;2023-04-19T02:14:35;95824.09;;;6.13;100.00
62103;BME280;48077;48.104;11.702;2023-04-19T02:16:59;95820.63;;;6.12;100.00
62103;BME280;48077;48.104;11.702;2023-04-19T02:19:22;95807.16;;;6.07;100.00
62103;BME280;48077;48.104;11.702;2023-04-19T02:21:46;95826.53;;;6.14;100.00
62103;BME280;48077;48.104;11.702;2023-04-19T02:24:09;95801.66;;;6.08;100.00
62103;BME280;48077;48.104;11.702;2023-04-19T02:26:32;95814.69;;;6.10;100.00
62103;BME280;48077;48.104;11.702;2023-04-19T02:28:56;95805.09;;;6.02;100.00
62103;BME280;48077;48.104;11.702;2023-04-19T02:31:22;95812.03;;;6.10;100.00
62103;BME280;48077;48.104;11.702;2023-04-19T02:33:45;95793.91;;;6.00;100.00
62103;BME280;48077;48.104;11.702;2023-04-19T02:36:09;95791.03;;;6.02;100.00
62103;BME280;48077;48.104;11.702;2023-04-19T02:38:32;95799.22;;;6.07;100.00
62103;BME280;48077;48.104;11.702;2023-04-19T02:40:56;95801.88;;;6.07;100.00
62103;BME280;48077;48.104;11.702;2023-04-19T02:43:19;95799.03;;;6.08;100.00
62103;BME280;48077;48.104;11.702;2023-04-19T02:45:42;95795.31;;;6.03;100.00
62103;BME280;48077;48.104;11.702;2023-04-19T02:48:06;95797.38;;;6.07;100.00
62103;BME280;48077;48.104;11.702;2023-04-19T02:50:29;95786.94;;;5.99;100.00
62103;BME280;48077;48.104;11.702;2023-04-19T02:52:53;95795.75;;;6.06;100.00
62103;BME280;48077;48.104;11.702;2023-04-19T02:55:16;95787.38;;;6.03;100.00
62103;BME280;48077;48.104;11.702;2023-04-19T02:57:39;95786.16;;;6.05;100.00
62103;BME280;48077;48.104;11.702;2023-04-19T03:00:03;95789.25;;;6.09;100.00
62103;BME280;48077;48.104;11.702;2023-04-19T03:02:30;95772.72;;;6.00;100.00
62103;BME280;48077;48.104;11.702;2023-04-19T03:04:54;95778.81;;;6.01;100.00
62103;BME280;48077;48.104;11.702;2023-04-19T03:07:17;95792.06;;;6.07;100.00
62103;BME280;48077;48.104;11.702;2023-04-19T03:09:41;95775.94;;;5.96;100.00
62103;BME280;48077;48.104;11.702;2023-04-19T03:12:06;95789.44;;;6.07;100.00
62103;BME280;48077;48.104;11.702;2023-04-19T03:14:29;95780.06;;;6.05;100.00
62103;BME280;48077;48.104;11.702;2023-04-19T03:16:53;95778.41;;;6.04;100.00
62103;BME280;48077;48.104;11.702;2023-04-19T03:19:16;95757.16;;;5.91;100.00
62103;BME280;48077;48.104;11.702;2023-04-19T03:21:39;95761.06;;;5.95;100.00
62103;BME280;48077;48.104;11.702;2023-04-19T03:24:03;95765.75;;;5.99;100.00
62103;BME280;48077;48.104;11.702;2023-04-19T03:26:26;95773.94;;;6.04;100.00
62103;BME280;48077;48.104;11.702;2023-04-19T03:28:50;95758.63;;;6.00;100.00
62103;BME280;48077;48.104;11.702;2023-04-19T03:31:13;95743.16;;;5.97;100.00
62103;BME280;48077;48.104;11.702;2023-04-19T03:33:37;95776.63;;;6.11;100.00
62103;BME280;48077;48.104;11.702;2023-04-19T03:36:00;95722.91;;;5.82;100.00
62103;BME280;48077;48.104;11.702;2023-04-19T03:38:24;95734.91;;;5.85;100.00
62103;BME280;48077;48.104;11.702;2023-04-19T03:40:47;95755.78;;;6.01;100.00
62103;BME280;48077;48.104;11.702;2023-04-19T03:43:10;95752.09;;;5.96;100.00
62103;BME280;48077;48.104;11.702;2023-04-19T03:45:36;95740.44;;;5.90;100.00
62103;BME280;48077;48.104;11.702;2023-04-19T03:47:59;95755.41;;;6.04;100.00
62103;BME280;48077;48.104;11.702;2023-04-19T03:50:22;95747.22;;;5.99;100.00
62103;BME280;48077;48.104;11.702;2023-04-19T03:52:46;95759.31;;;6.08;100.00
62103;BME280;48077;48.104;11.702;2023-04-19T03:55:09;95759.88;;;6.04;100.00
62103;BME280;48077;48.104;11.702;2023-04-19T03:57:34;95761.53;;;6.05;100.00
62103;BME280;48077;48.104;11.702;2023-04-19T03:59:58;95745.00;;;5.96;100.00
62103;BME280;48077;48.104;11.702;2023-04-19T04:02:22;95746.41;;;5.99;100.00
62103;BME280;48077;48.104;11.702;2023-04-19T04:04:45;95724.75;;;5.88;100.00
62103;BME280;48077;48.104;11.702;2023-04-19T04:07:08;95763.56;;;6.10;100.00
62103;BME280;48077;48.104;11.702;2023-04-19T04:09:32;95747.66;;;6.03;100.00
62103;BME280;48077;48.104;11.702;2023-04-19T04:11:56;95762.53;;;6.04;100.00
62103;BME280;48077;48.104;11.702;2023-04-19T04:14:19;95751.72;;;5.99;100.00
62103;BME280;48077;48.104;11.702;2023-04-19T04:16:42;95746.00;;;5.95;100.00
62103;BME280;48077;48.104;11.702;2023-04-19T04:19:06;95746.16;;;5.94;100.00
62103;BME280;48077;48.104;11.702;2023-04-19T04:21:29;95746.00;;;5.95;100.00
62103;BME280;48077;48.104;11.702;2023-04-19T04:23:53;95759.88;;;6.04;100.00
62103;BME280;48077;48.104;11.702;2023-04-19T04:26:17;95754.56;;;5.97;100.00
62103;BME280;48077;48.104;11.702;2023-04-19T04:28:42;95765.59;;;6.07;100.00
62103;BME280;48077;48.104;11.702;2023-04-19T04:31:05;95767.00;;;6.03;100.00
62103;BME280;48077;48.104;11.702;2023-04-19T04:33:28;95740.66;;;5.88;100.00
62103;BME280;48077;48.104;11.702;2023-04-19T04:35:53;95739.84;;;5.88;100.00
62103;BME280;48077;48.104;11.702;2023-04-19T04:38:16;95765.75;;;5.99;100.00
62103;BME280;48077;48.104;11.702;2023-04-19T04:40:40;95734.28;;;5.76;100.00
62103;BME280;48077;48.104;11.702;2023-04-19T04:43:04;95755.13;;;5.93;100.00
62103;BME280;48077;48.104;11.702;2023-04-19T04:45:29;95751.66;;;5.92;100.00
62103;BME280;48077;48.104;11.702;2023-04-19T04:47:54;95731.44;;;5.78;100.00
62103;BME280;48077;48.104;11.702;2023-04-19T04:50:17;95741.25;;;5.84;100.00
62103;BME280;48077;48.104;11.702;2023-04-19T04:52:43;95756.59;;;5.95;100.00
62103;BME280;48077;48.104;11.702;2023-04-19T04:55:06;95758.84;;;5.98;100.00
62103;BME280;48077;48.104;11.702;2023-04-19T04:57:30;95750.00;;;5.91;100.00
62103;BME280;48077;48.104;11.702;2023-04-19T04:59:53;95764.16;;;6.05;100.00
62103;BME280;48077;48.104;11.702;2023-04-19T05:02:21;95746.75;;;5.89;100.00
62103;BME280;48077;48.104;11.702;2023-04-19T05:04:46;95733.91;;;5.86;100.00
62103;BME280;48077;48.104;11.702;2023-04-19T05:07:09;95753.97;;;6.02;100.00
62103;BME280;48077;48.104;11.702;2023-04-19T05:09:33;95756.19;;;5.98;100.00
62103;BME280;48077;48.104;11.702;2023-04-19T05:11:56;95751.53;;;6.00;100.00
62103;BME280;48077;48.104;11.702;2023-04-19T05:14:19;95728.00;;;5.84;100.00
62103;BME280;48077;48.104;11.702;2023-04-19T05:16:43;95755.97;;;6.00;100.00
62103;BME280;48077;48.104;11.702;2023-04-19T05:19:06;95759.66;;;5.99;100.00
62103;BME280;48077;48.104;11.702;2023-04-19T05:21:29;95741.50;;;5.96;100.00
62103;BME280;48077;48.104;11.702;2023-04-19T05:23:53;95750.47;;;5.95;100.00
62103;BME280;48077;48.104;11.702;2023-04-19T05:26:16;95727.19;;;5.83;100.00
62103;BME280;48077;48.104;11.702;2023-04-19T05:28:40;95751.31;;;6.02;100.00
62103;BME280;48077;48.104;11.702;2023-04-19T05:31:04;95746.22;;;6.00;100.00
62103;BME280;48077;48.104;11.702;2023-04-19T05:33:27;95728.88;;;5.98;100.00
62103;BME280;48077;48.104;11.702;2023-04-19T05:35:51;95741.34;;;6.04;100.00
62103;BME280;48077;48.104;11.702;2023-04-19T05:38:14;95732.75;;;5.95;100.00
62103;BME280;48077;48.104;11.702;2023-04-19T05:40:41;95744.59;;;5.99;100.00
62103;BME280;48077;48.104;11.702;2023-04-19T05:43:04;95727.84;;;5.92;100.00
62103;BME280;48077;48.104;11.702;2023-04-19T05:45:28;95746.88;;;6.09;100.00
62103;BME280;48077;48.104;11.702;2023-04-19T05:47:51;95751.97;;;6.11;100.00
62103;BME280;48077;48.104;11.702;2023-04-19T05:50:14;95735.63;;;6.00;100.00
62103;BME280;48077;48.104;11.702;2023-04-19T05:52:40;95731.59;;;6.04;100.00
62103;BME280;48077;48.104;11.702;2023-04-19T05:55:04;95734.25;;;6.11;100.00
62103;BME280;48077;48.104;11.702;2023-04-19T05:57:27;95742.03;;;6.19;100.00
62103;BME280;48077;48.104;11.702;2023-04-19T05:59:51;95728.69;;;5.99;100.00
62103;BME280;48077;48.104;11.702;2023-04-19T06:02:14;95740.53;;;6.10;100.00
62103;BME280;48077;48.104;11.702;2023-04-19T06:04:38;95728.34;;;6.09;100.00
62103;BME280;48077;48.104;11.702;2023-04-19T06:07:01;95741.56;;;6.09;100.00
62103;BME280;48077;48.104;11.702;2023-04-19T06:09:24;95724.44;;;6.05;100.00
62103;BME280;48077;48.104;11.702;2023-04-19T06:11:48;95739.75;;;6.10;100.00
62103;BME280;48077;48.104;11.702;2023-04-19T06:14:14;95754.44;;;6.19;100.00
62103;BME280;48077;48.104;11.702;2023-04-19T06:16:37;95736.28;;;6.09;100.00
62103;BME280;48077;48.104;11.702;2023-04-19T06:19:00;95758.50;;;6.15;100.00
62103;BME280;48077;48.104;11.702;2023-04-19T06:21:24;95741.34;;;6.04;100.00
62103;BME280;48077;48.104;11.702;2023-04-19T06:23:47;95749.72;;;6.14;100.00
62103;BME280;48077;48.104;11.702;2023-04-19T06:26:10;95748.91;;;6.14;100.00
62103;BME280;48077;48.104;11.702;2023-04-19T06:28:34;95750.41;;;6.23;100.00
62103;BME280;48077;48.104;11.702;2023-04-19T06:30:57;95728.09;;;6.04;100.00
62103;BME280;48077;48.104;11.702;2023-04-19T06:33:23;95746.06;;;6.15;100.00
62103;BME280;48077;48.104;11.702;2023-04-19T06:35:46;95741.00;;;6.20;100.00
62103;BME280;48077;48.104;11.702;2023-04-19T06:38:10;95747.94;;;6.21;100.00
62103;BME280;48077;48.104;11.702;2023-04-19T06:40:33;95750.16;;;6.18;100.00
62103;BME280;48077;48.104;11.702;2023-04-19T06:42:57;95733.63;;;6.09;100.00
62103;BME280;48077;48.104;11.702;2023-04-19T06:45:20;95740.34;;;6.05;100.00
62103;BME280;48077;48.104;11.702;2023-04-19T06:47:44;95741.16;;;6.12;100.00
62103;BME280;48077;48.104;11.702;2023-04-19T06:50:07;95722.78;;;5.97;100.00
62103;BME280;48077;48.104;11.702;2023-04-19T06:52:31;95742.38;;;6.10;100.00
62103;BME280;48077;48.104;11.702;2023-04-19T06:54:54;95735.88;;;6.12;100.00
62103;BME280;48077;48.104;11.702;2023-04-19T06:57:18;95739.34;;;6.13;100.00
62103;BME280;48077;48.104;11.702;2023-04-19T06:59:41;95735.47;;;6.08;100.00
62103;BME280;48077;48.104;11.702;2023-04-19T07:02:05;95716.06;;;5.95;100.00
62103;BME280;48077;48.104;11.702;2023-04-19T07:04:28;95712.38;;;5.96;100.00
62103;BME280;48077;48.104;11.702;2023-04-19T07:06:52;95731.44;;;6.19;100.00
62103;BME280;48077;48.104;11.702;2023-04-19T07:09:15;95703.78;;;5.94;100.00
62103;BME280;48077;48.104;11.702;2023-04-19T07:11:38;95722.59;;;6.05;100.00
62103;BME280;48077;48.104;11.702;2023-04-19T07:14:02;95733.22;;;6.12;100.00
62103;BME280;48077;48.104;11.702;2023-04-19T07:16:26;95742.22;;;6.18;100.00
62103;BME280;48077;48.104;11.702;2023-04-19T07:18:51;95720.78;;;6.06;100.00
62103;BME280;48077;48.104;11.702;2023-04-19T07:21:15;95734.25;;;6.11;100.00
62103;BME280;48077;48.104;11.702;2023-04-19T07:23:38;95723.47;;;6.13;100.00
62103;BME280;48077;48.104;11.702;2023-04-19T07:26:04;95732.66;;;6.17;100.00
62103;BME280;48077;48.104;11.702;2023-04-19T07:28:28;95708.38;;;6.06;100.00
62103;BME280;48077;48.104;11.702;2023-04-19T07:30:54;95710.78;;;6.08;100.00
62103;BME280;48077;48.104;11.702;2023-04-19T07:33:17;95720.59;;;6.14;100.00
62103;BME280;48077;48.104;11.702;2023-04-19T07:35:40;95728.38;;;6.22;100.00
62103;BME280;48077;48.104;11.702;2023-04-19T07:38:04;95721.63;;;6.20;100.00
62103;BME280;48077;48.104;11.702;2023-04-19T07:40:27;95710.41;;;6.11;100.00
62103;BME280;48077;48.104;11.702;2023-04-19T07:42:50;95725.53;;;6.24;100.00
62103;BME280;48077;48.104;11.702;2023-04-19T07:45:14;95723.31;;;6.27;100.00
62103;BME280;48077;48.104;11.702;2023-04-19T07:47:37;95715.13;;;6.22;100.00
62103;BME280;48077;48.104;11.702;2023-04-19T07:50:01;95710.25;;;6.26;100.00
62103;BME280;48077;48.104;11.702;2023-04-19T07:52:24;95712.53;;;6.42;100.00
62103;BME280;48077;48.104;11.702;2023-04-19T07:54:48;95704.38;;;6.51;100.00
62103;BME280;48077;48.104;11.702;2023-04-19T07:57:11;95713.56;;;6.68;100.00
62103;BME280;48077;48.104;11.702;2023-04-19T07:59:35;95707.88;;;6.78;100.00
62103;BME280;48077;48.104;11.702;2023-04-19T08:01:58;95687.69;;;6.77;100.00
62103;BME280;48077;48.104;11.702;2023-04-19T08:04:21;95697.06;;;6.99;100.00
62103;BME280;48077;48.104;11.702;2023-04-19T08:06:45;95686.25;;;7.07;100.00
62103;BME280;48077;48.104;11.702;2023-04-19T08:09:08;95675.44;;;7.09;100.00
62103;BME280;48077;48.104;11.702;2023-04-19T08:11:32;95687.22;;;7.26;100.00
62103;BME280;48077;48.104;11.702;2023-04-19T08:13:55;95687.03;;;7.28;100.00
62103;BME280;48077;48.104;11.702;2023-04-19T08:16:18;95682.75;;;7.34;100.00
62103;BME280;48077;48.104;11.702;2023-04-19T08:18:42;95672.94;;;7.34;100.00
62103;BME280;48077;48.104;11.702;2023-04-19T08:21:08;95702.06;;;7.61;100.00
62103;BME280;48077;48.104;11.702;2023-04-19T08:23:31;95685.75;;;7.57;100.00
62103;BME280;48077;48.104;11.702;2023-04-19T08:25:55;95700.56;;;7.78;100.00
62103;BME280;48077;48.104;11.702;2023-04-19T08:28:18;95685.22;;;7.87;100.00
62103;BME280;48077;48.104;11.702;2023-04-19T08:30:41;95679.25;;;7.91;100.00
62103;BME280;48077;48.104;11.702;2023-04-19T08:33:07;95673.09;;;7.98;100.00
62103;BME280;48077;48.104;11.702;2023-04-19T08:35:30;95679.25;;;7.98;100.00
62103;BME280;48077;48.104;11.702;2023-04-19T08:37:54;95677.00;;;7.95;100.00
62103;BME280;48077;48.104;11.702;2023-04-19T08:40:17;95680.22;;;8.04;100.00
62103;BME280;48077;48.104;11.702;2023-04-19T08:42:44;95695.91;;;8.19;100.00
62103;BME280;48077;48.104;11.702;2023-04-19T08:45:08;95681.75;;;8.25;100.00
62103;BME280;48077;48.104;11.702;2023-04-19T08:47:34;95688.25;;;8.36;100.00
62103;BME280;48077;48.104;11.702;2023-04-19T08:50:03;95672.16;;;8.24;100.00
62103;BME280;48077;48.104;11.702;2023-04-19T08:52:27;95660.34;;;8.20;100.00
62103;BME280;48077;48.104;11.702;2023-04-19T08:54:51;95665.44;;;8.21;100.00
62103;BME280;48077;48.104;11.702;2023-04-19T08:57:16;95668.44;;;8.31;100.00
62103;BME280;48077;48.104;11.702;2023-04-19T08:59:39;95655.63;;;8.22;100.00
62103;BME280;48077;48.104;11.702;2023-04-19T09:02:03;95651.31;;;8.27;100.00
62103;BME280;48077;48.104;11.702;2023-04-19T09:04:26;95659.63;;;8.31;100.00
62103;BME280;48077;48.104;11.702;2023-04-19T09:06:53;95665.34;;;8.35;100.00
62103;BME280;48077;48.104;11.702;2023-04-19T09:09:21;95669.00;;;8.40;100.00
62103;BME280;48077;48.104;11.702;2023-04-19T09:11:45;95646.00;;;8.27;100.00
62103;BME280;48077;48.104;11.702;2023-04-19T09:14:10;95645.16;;;8.27;100.00
62103;BME280;48077;48.104;11.702;2023-04-19T09:16:34;95646.00;;;8.27;100.00
62103;BME280;48077;48.104;11.702;2023-04-19T09:18:59;95649.66;;;8.26;100.00
62103;BME280;48077;48.104;11.702;2023-04-19T09:21:28;95638.28;;;8.19;100.00
62103;BME280;48077;48.104;11.702;2023-04-19T09:23:51;95658.41;;;8.34;100.00
62103;BME280;48077;48.104;11.702;2023-04-19T09:26:15;95650.41;;;8.40;100.00
62103;BME280;48077;48.104;11.702;2023-04-19T09:28:38;95640.19;;;8.37;100.00
62103;BME280;48077;48.104;11.702;2023-04-19T09:31:11;95651.56;;;8.51;100.00
62103;BME280;48077;48.104;11.702;2023-04-19T09:33:37;95643.88;;;8.43;100.00
62103;BME280;48077;48.104;11.702;2023-04-19T09:36:02;95640.59;;;8.41;100.00
62103;BME280;48077;48.104;11.702;2023-04-19T09:38:25;95639.38;;;8.37;100.00
62103;BME280;48077;48.104;11.702;2023-04-19T09:40:49;95623.22;;;8.38;100.00
62103;BME280;48077;48.104;11.702;2023-04-19T09:43:22;95625.00;;;8.51;100.00
62103;BME280;48077;48.104;11.702;2023-04-19T09:45:47;95613.81;;;8.67;100.00
62103;BME280;48077;48.104;11.702;2023-04-19T09:48:11;95619.25;;;8.98;100.00
62103;BME280;48077;48.104;11.702;2023-04-19T09:50:36;95619.38;;;9.28;100.00
62103;BME280;48077;48.104;11.702;2023-04-19T09:52:59;95605.09;;;9.59;99.01
62103;BME280;48077;48.104;11.702;2023-04-19T09:55:25;95619.28;;;9.90;95.12
62103;BME280;48077;48.104;11.702;2023-04-19T09:57:49;95588.38;;;10.01;92.34
62103;BME280;48077;48.104;11.702;2023-04-19T10:00:14;95594.41;;;10.08;91.56
62103;BME280;48077;48.104;11.702;2023-04-19T10:02:39;95608.16;;;10.23;90.81
62103;BME280;48077;48.104;11.702;2023-04-19T10:05:03;95605.50;;;10.23;89.96
62103;BME280;48077;48.104;11.702;2023-04-19T10:07:30;95598.41;;;10.29;88.95
62103;BME280;48077;48.104;11.702;2023-04-19T10:09:54;95593.34;;;10.27;86.87
62103;BME280;48077;48.104;11.702;2023-04-19T10:12:21;95578.00;;;10.11;87.54
62103;BME280;48077;48.104;11.702;2023-04-19T10:14:45;95569.84;;;10.06;88.82
62103;BME280;48077;48.104;11.702;2023-04-19T10:17:10;95595.25;;;10.08;89.52
62103;BME280;48077;48.104;11.702;2023-04-19T10:19:34;95585.72;;;10.01;89.45
62103;BME280;48077;48.104;11.702;2023-04-19T10:21:59;95590.88;;;9.84;89.20
62103;BME280;48077;48.104;11.702;2023-04-19T10:24:23;95562.13;;;9.56;88.95
62103;BME280;48077;48.104;11.702;2023-04-19T10:27:06;95578.91;;;9.56;91.58
62103;BME280;48077;48.104;11.702;2023-04-19T10:29:58;95582.25;;;9.51;92.37
62103;BME280;48077;48.104;11.702;2023-04-19T10:32:25;95576.34;;;9.49;92.79
62103;BME280;48077;48.104;11.702;2023-04-19T10:34:51;95560.38;;;9.49;88.75
62103;BME280;48077;48.104;11.702;2023-04-19T10:37:16;95572.78;;;9.37;91.29
62103;BME280;48077;48.104;11.702;2023-04-19T10:39:44;95571.03;;;9.31;90.14
62103;BME280;48077;48.104;11.702;2023-04-19T10:42:07;95555.22;;;8.99;93.78
62103;BME280;48077;48.104;11.702;2023-04-19T10:44:31;95576.66;;;9.04;95.66
62103;BME280;48077;48.104;11.702;2023-04-19T10:46:54;95571.84;;;8.95;96.97
62103;BME280;48077;48.104;11.702;2023-04-19T10:49:22;95552.31;;;8.82;98.33
62103;BME280;48077;48.104;11.702;2023-04-19T10:51:50;95553.38;;;8.81;99.83
62103;BME280;48077;48.104;11.702;2023-04-19T10:54:32;95557.72;;;8.76;98.47
62103;BME280;48077;48.104;11.702;2023-04-19T10:57:07;95545.13;;;8.64;98.80
62103;BME280;48077;48.104;11.702;2023-04-19T10:59:36;95543.06;;;8.66;99.77
62103;BME280;48077;48.104;11.702;2023-04-19T11:02:04;95523.91;;;8.58;99.41
62103;BME280;48077;48.104;11.702;2023-04-19T11:11:48;95540.66;;;8.58;98.86
62103;BME280;48077;48.104;11.702;2023-04-19T11:14:12;95538.47;;;8.55;97.76
62103;BME280;48077;48.104;11.702;2023-04-19T11:16:36;95520.81;;;8.36;98.38
62103;BME280;48077;48.104;11.702;2023-04-19T11:18:59;95535.94;;;8.42;99.35
62103;BME280;48077;48.104;11.702;2023-04-19T11:21:24;95525.69;;;8.39;99.22
62103;BME280;48077;48.104;11.702;2023-04-19T11:24:09;95528.97;;;8.41;99.14
62103;BME280;48077;48.104;11.702;2023-04-19T11:26:32;95520.59;;;8.37;98.42
62103;BME280;48077;48.104;11.702;2023-04-19T11:28:56;95516.31;;;8.36;99.09
62103;BME280;48077;48.104;11.702;2023-04-19T11:31:19;95508.72;;;8.40;98.19
62103;BME280;48077;48.104;11.702;2023-04-19T11:33:44;95514.03;;;8.40;98.31
62103;BME280;48077;48.104;11.702;2023-04-19T11:36:10;95512.81;;;8.42;98.46
62103;BME280;48077;48.104;11.702;2023-04-19T11:38:35;95513.94;;;8.53;97.09
62103;BME280;48077;48.104;11.702;2023-04-19T11:40:59;95497.00;;;8.22;100.00
62103;BME280;48077;48.104;11.702;2023-04-19T11:43:23;95517.59;;;8.27;100.00
62103;BME280;48077;48.104;11.702;2023-04-19T11:45:46;95504.63;;;8.19;100.00
62103;BME280;48077;48.104;11.702;2023-04-19T11:48:13;95503.03;;;8.11;100.00
62103;BME280;48077;48.104;11.702;2023-04-19T11:50:46;95495.00;;;7.93;100.00
62103;BME280;48077;48.104;11.702;2023-04-19T11:55:50;95497.72;;;7.86;100.00
62103;BME280;48077;48.104;11.702;2023-04-19T12:00:56;95485.31;;;7.48;100.00
62103;BME280;48077;48.104;11.702;2023-04-19T12:03:22;95499.59;;;7.79;100.00
62103;BME280;48077;48.104;11.702;2023-04-19T12:05:56;95509.75;;;7.88;100.00
62103;BME280;48077;48.104;11.702;2023-04-19T12:08:32;95514.56;;;7.66;100.00
62103;BME280;48077;48.104;11.702;2023-04-19T12:10:58;95484.69;;;7.46;100.00
62103;BME280;48077;48.104;11.702;2023-04-19T12:13:24;95508.25;;;7.67;100.00
62103;BME280;48077;48.104;11.702;2023-04-19T12:15:47;95506.19;;;7.69;100.00
62103;BME280;48077;48.104;11.702;2023-04-19T12:18:11;95506.53;;;7.80;100.00
62103;BME280;48077;48.104;11.702;2023-04-19T12:20:36;95506.78;;;7.72;100.00
62103;BME280;48077;48.104;11.702;2023-04-19T12:23:00;95482.00;;;7.53;100.00
62103;BME280;48077;48.104;11.702;2023-04-19T12:25:32;95465.78;;;7.36;100.00
62103;BME280;48077;48.104;11.702;2023-04-19T12:27:56;95510.50;;;7.64;100.00
62103;BME280;48077;48.104;11.702;2023-04-19T12:30:19;95503.03;;;7.54;100.00
62103;BME280;48077;48.104;11.702;2023-04-19T12:32:42;95510.38;;;7.52;100.00
62103;BME280;48077;48.104;11.702;2023-04-19T12:35:06;95512.03;;;7.46;100.00
62103;BME280;48077;48.104;11.702;2023-04-19T12:37:29;95486.00;;;7.30;100.00
62103;BME280;48077;48.104;11.702;2023-04-19T12:39:53;95508.81;;;7.38;100.00
62103;BME280;48077;48.104;11.702;2023-04-19T12:42:16;95497.09;;;7.14;100.00
62103;BME280;48077;48.104;11.702;2023-04-19T12:44:40;95508.25;;;7.29;100.00
62103;BME280;48077;48.104;11.702;2023-04-19T12:47:03;95503.44;;;7.06;100.00
62103;BME280;48077;48.104;11.702;2023-04-19T12:49:26;95498.81;;;6.95;100.00
62103;BME280;48077;48.104;11.702;2023-04-19T12:51:50;95489.59;;;6.97;100.00